createdAt,value
2022-08-17T00:00:52.182Z,45.02
2022-08-17T00:03:24.429Z,44.83
2022-08-17T00:05:58.665Z,44.92
2022-08-17T00:08:32.095Z,44.90
2022-08-17T00:11:02.450Z,44.95
2022-08-17T00:13:35.341Z,45.19
2022-08-17T00:16:07.793Z,44.91
2022-08-17T00:18:58.300Z,45.07
2022-08-17T00:22:29.841Z,44.91
2022-08-17T00:24:21.753Z,44.60
2022-08-17T00:26:50.922Z,44.41
2022-08-17T00:29:20.805Z,44.11
2022-08-17T00:31:51.239Z,44.27
2022-08-17T00:34:20.542Z,44.28
2022-08-17T00:36:49.928Z,44.26
2022-08-17T00:39:20.987Z,44.67
2022-08-17T00:41:50.335Z,44.52
2022-08-17T00:44:19.753Z,44.54
2022-08-17T00:46:49.376Z,44.71
2022-08-17T00:49:19.905Z,44.99
2022-08-17T00:51:54.536Z,45.16
2022-08-17T00:54:28.736Z,45.03
2022-08-17T00:57:04.014Z,45.05
2022-08-17T00:59:37.942Z,45.08
2022-08-17T01:02:10.254Z,45.21
2022-08-17T01:04:40.220Z,45.49
2022-08-17T01:07:11.373Z,45.30
2022-08-17T01:09:42.886Z,45.71
2022-08-17T01:12:13.584Z,45.66
2022-08-17T01:14:43.012Z,45.35
2022-08-17T01:17:12.358Z,45.98
2022-08-17T01:19:43.157Z,45.76
2022-08-17T01:22:25.887Z,45.27
2022-08-17T01:24:59.977Z,45.61
2022-08-17T01:27:30.581Z,45.69
2022-08-17T01:30:04.469Z,46.27
2022-08-17T01:32:54.462Z,45.67
2022-08-17T01:35:23.936Z,45.84
2022-08-17T01:37:54.790Z,46.02
2022-08-17T01:40:30.678Z,46.12
2022-08-17T01:43:03.104Z,46.19
2022-08-17T01:45:35.253Z,46.53
2022-08-17T01:48:04.777Z,47.03
2022-08-17T01:50:38.175Z,47.06
2022-08-17T01:53:14.707Z,47.00
2022-08-17T01:55:50.756Z,47.05
2022-08-17T01:58:21.742Z,46.87
2022-08-17T02:01:01.174Z,46.89
2022-08-17T02:03:33.169Z,46.97
2022-08-17T02:06:02.609Z,47.38
2022-08-17T02:08:38.103Z,46.99
2022-08-17T02:11:14.180Z,47.53
2022-08-17T02:13:44.556Z,47.49
2022-08-17T02:16:16.032Z,47.42
2022-08-17T02:18:44.807Z,46.12
2022-08-17T02:21:14.921Z,47.28
2022-08-17T02:23:49.678Z,47.91
2022-08-17T02:26:26.368Z,47.94
2022-08-17T02:28:56.416Z,48.07
2022-08-17T02:31:25.492Z,48.02
2022-08-17T02:33:56.840Z,47.74
2022-08-17T02:36:33.102Z,48.29
2022-08-17T02:39:04.789Z,48.17
2022-08-17T02:41:34.001Z,48.40
2022-08-17T02:44:03.462Z,48.46
2022-08-17T02:46:33.390Z,48.00
2022-08-17T02:49:03.518Z,48.19
2022-08-17T02:51:33.556Z,47.63
2022-08-17T02:54:40.687Z,48.41
2022-08-17T02:56:54.779Z,47.72
2022-08-17T02:59:24.609Z,47.53
2022-08-17T03:01:54.102Z,47.70
2022-08-17T03:04:23.726Z,47.88
2022-08-17T03:06:53.080Z,48.01
2022-08-17T03:09:23.429Z,47.80
2022-08-17T03:11:53.181Z,47.62
2022-08-17T03:14:26.359Z,47.38
2022-08-17T03:16:56.400Z,47.13
2022-08-17T03:19:25.589Z,47.12
2022-08-17T03:21:55.039Z,47.15
2022-08-17T03:24:28.949Z,46.80
2022-08-17T03:26:59.206Z,46.52
2022-08-17T03:29:28.556Z,46.63
2022-08-17T03:31:58.509Z,46.36
2022-08-17T03:34:29.284Z,46.07
2022-08-17T03:36:58.865Z,45.54
2022-08-17T03:39:29.940Z,45.91
2022-08-17T03:42:06.859Z,45.71
2022-08-17T03:44:37.343Z,45.79
2022-08-17T03:47:20.728Z,45.53
2022-08-17T03:50:10.416Z,45.94
2022-08-17T03:52:57.537Z,45.62
2022-08-17T03:55:45.420Z,45.39
2022-08-17T03:58:15.002Z,45.23
2022-08-17T04:00:46.453Z,45.27
2022-08-17T04:03:16.072Z,45.29
2022-08-17T04:05:45.395Z,44.96
2022-08-17T04:08:14.506Z,44.54
2022-08-17T04:10:45.482Z,44.34
2022-08-17T04:13:15.227Z,44.01
2022-08-17T04:15:53.466Z,43.50
2022-08-17T04:18:22.497Z,43.66
2022-08-17T04:20:52.444Z,43.10
2022-08-17T04:23:22.563Z,42.60
2022-08-17T04:25:55.866Z,42.16
2022-08-17T04:28:25.074Z,42.40
2022-08-17T04:30:54.325Z,41.83
2022-08-17T04:33:25.191Z,41.41
2022-08-17T04:35:56.316Z,40.64
2022-08-17T04:38:27.620Z,40.44
2022-08-17T04:41:15.973Z,39.59
2022-08-17T04:43:47.555Z,40.08
2022-08-17T04:46:19.549Z,40.34
2022-08-17T04:48:51.621Z,39.97
2022-08-17T04:51:27.323Z,39.74
2022-08-17T04:53:59.126Z,39.25
2022-08-17T04:56:30.673Z,38.98
2022-08-17T04:59:05.435Z,38.79
2022-08-17T05:01:41.301Z,38.91
2022-08-17T05:04:33.130Z,38.50
2022-08-17T05:07:04.223Z,37.80
2022-08-17T05:09:33.929Z,37.83
2022-08-17T05:12:06.196Z,37.87
2022-08-17T05:14:36.062Z,37.52
2022-08-17T05:17:10.664Z,37.78
2022-08-17T05:19:41.337Z,37.70
2022-08-17T05:22:10.589Z,37.97
2022-08-17T05:24:43.704Z,37.92
2022-08-17T05:27:24.594Z,37.85
2022-08-17T05:29:59.024Z,37.63
2022-08-17T05:32:39.027Z,37.37
2022-08-17T05:35:18.551Z,37.46
2022-08-17T05:37:47.902Z,37.59
2022-08-17T05:40:17.375Z,37.54
2022-08-17T05:42:48.330Z,37.53
2022-08-17T05:45:54.705Z,37.88
2022-08-17T05:48:11.548Z,37.38
2022-08-17T05:50:50.921Z,37.60
2022-08-17T05:53:26.549Z,37.23
2022-08-17T05:56:11.602Z,37.18
2022-08-17T05:59:10.384Z,36.85
2022-08-17T06:01:49.830Z,36.92
2022-08-17T06:04:32.333Z,36.72
2022-08-17T06:07:11.715Z,36.49
2022-08-17T06:09:47.520Z,36.36
2022-08-17T06:12:35.725Z,36.05
2022-08-17T06:15:24.765Z,36.22
2022-08-17T06:17:57.526Z,35.99
2022-08-17T06:20:30.443Z,35.77
2022-08-17T06:23:07.597Z,35.97
2022-08-17T06:25:46.373Z,35.59
2022-08-17T06:28:24.431Z,35.54
2022-08-17T06:31:01.395Z,35.69
2022-08-17T06:33:34.801Z,35.18
2022-08-17T06:36:16.050Z,34.30
2022-08-17T06:38:51.193Z,33.41
2022-08-17T06:41:31.671Z,33.66
2022-08-17T06:44:43.651Z,32.20
2022-08-17T06:47:12.934Z,30.52
2022-08-17T06:49:55.241Z,30.48
2022-08-17T06:52:42.173Z,30.00
2022-08-17T06:55:26.365Z,28.88
2022-08-17T06:58:05.788Z,28.27
2022-08-17T07:00:48.927Z,27.75
2022-08-17T07:03:38.032Z,27.46
2022-08-17T07:06:14.534Z,27.08
2022-08-17T07:08:54.873Z,26.68
2022-08-17T07:11:32.188Z,26.03
2022-08-17T07:14:17.500Z,26.07
2022-08-17T07:16:55.119Z,25.12
2022-08-17T07:19:29.220Z,24.82
2022-08-17T07:22:09.236Z,24.41
2022-08-17T07:24:47.949Z,24.48
2022-08-17T07:27:21.790Z,23.73
2022-08-17T07:29:55.131Z,24.15
2022-08-17T07:32:32.805Z,23.89
2022-08-17T07:35:16.937Z,23.50
2022-08-17T07:37:54.520Z,23.50
2022-08-17T07:40:42.668Z,22.94
2022-08-17T07:43:24.483Z,23.08
2022-08-17T07:46:22.259Z,22.65
2022-08-17T07:48:55.135Z,21.74
2022-08-17T07:51:31.426Z,21.58
2022-08-17T07:54:14.506Z,21.53
2022-08-17T07:56:48.085Z,21.56
2022-08-17T07:59:24.063Z,21.14
2022-08-17T08:02:31.752Z,20.89
2022-08-17T08:05:10.015Z,20.52
2022-08-17T08:07:54.432Z,20.47
2022-08-17T08:10:31.269Z,20.92
2022-08-17T08:13:08.600Z,20.57
2022-08-17T08:15:45.240Z,19.00
2022-08-17T08:18:53.405Z,19.92
2022-08-17T08:21:29.858Z,19.84
2022-08-17T08:24:16.319Z,19.19
2022-08-17T08:26:55.615Z,19.71
2022-08-17T08:29:33.335Z,18.66
2022-08-17T08:32:23.022Z,19.49
2022-08-17T08:35:03.749Z,19.13
2022-08-17T08:37:46.983Z,18.90
2022-08-17T08:40:34.972Z,18.66
2022-08-17T08:43:16.681Z,18.32
2022-08-17T08:46:05.379Z,19.01
2022-08-17T08:49:09.989Z,18.04
2022-08-17T08:51:51.979Z,17.74
2022-08-17T08:54:35.442Z,17.81
2022-08-17T08:57:26.798Z,18.57
2022-08-17T09:00:10.186Z,18.51
2022-08-17T09:03:05.882Z,17.64
2022-08-17T09:05:49.871Z,18.31
2022-08-17T09:08:27.676Z,17.68
2022-08-17T09:11:01.655Z,17.52
2022-08-17T09:13:40.751Z,16.70
2022-08-17T09:16:16.626Z,16.77
2022-08-17T09:19:01.747Z,16.86
2022-08-17T09:21:48.440Z,16.50
2022-08-17T09:24:26.768Z,17.05
2022-08-17T09:27:02.607Z,16.49
2022-08-17T09:29:35.608Z,17.71
2022-08-17T09:32:14.909Z,17.11
2022-08-17T09:34:51.274Z,17.38
2022-08-17T09:37:38.839Z,16.98
2022-08-17T09:40:19.375Z,17.71
2022-08-17T09:42:51.093Z,15.85
2022-08-17T09:46:02.034Z,15.45
2022-08-17T09:48:41.222Z,15.59
2022-08-17T09:51:19.845Z,15.61
2022-08-17T09:53:50.091Z,15.18
2022-08-17T09:56:56.435Z,15.33
2022-08-17T09:59:53.407Z,15.50
2022-08-17T10:02:44.389Z,15.19
2022-08-17T10:05:25.102Z,16.58
2022-08-17T10:08:09.565Z,16.58
2022-08-17T10:10:52.474Z,15.95
2022-08-17T10:13:35.564Z,15.65
2022-08-17T10:16:14.281Z,15.83
2022-08-17T10:18:53.297Z,15.85
2022-08-17T10:22:00.881Z,14.82
2022-08-17T10:25:01.890Z,15.15
2022-08-17T10:27:58.000Z,14.62
2022-08-17T10:30:41.105Z,14.31
2022-08-17T10:33:23.650Z,14.42
2022-08-17T10:36:06.385Z,14.15
2022-08-17T10:38:48.399Z,14.86
2022-08-17T10:41:38.166Z,15.67
2022-08-17T10:44:38.759Z,15.12
2022-08-17T10:47:11.522Z,15.31
2022-08-17T10:49:48.183Z,14.76
2022-08-17T10:52:54.878Z,14.83
2022-08-17T10:55:26.759Z,15.18
2022-08-17T10:58:22.189Z,14.52
2022-08-17T11:01:00.192Z,16.16
2022-08-17T11:03:33.748Z,15.65
2022-08-17T11:06:15.713Z,15.70
2022-08-17T11:09:31.780Z,14.65
2022-08-17T11:12:16.444Z,14.31
2022-08-17T11:15:03.031Z,14.53
2022-08-17T11:18:04.439Z,14.52
2022-08-17T11:20:43.047Z,13.02
2022-08-17T11:23:40.920Z,13.35
2022-08-17T11:26:36.137Z,13.15
2022-08-17T11:29:24.735Z,13.17
2022-08-17T11:32:04.321Z,13.51
2022-08-17T11:34:35.746Z,13.31
2022-08-17T11:37:41.083Z,13.44
2022-08-17T11:40:34.798Z,12.61
2022-08-17T11:43:25.611Z,13.92
2022-08-17T11:46:12.124Z,13.85
2022-08-17T11:49:09.239Z,14.17
2022-08-17T11:52:13.807Z,13.41
2022-08-17T11:54:48.089Z,13.91
2022-08-17T11:57:47.450Z,13.67
2022-08-17T12:00:58.542Z,13.62
2022-08-17T12:03:53.726Z,12.66
2022-08-17T12:06:51.688Z,12.79
2022-08-17T12:09:25.068Z,13.96
2022-08-17T12:12:12.182Z,13.54
2022-08-17T12:15:09.514Z,13.29
2022-08-17T12:17:53.111Z,14.52
2022-08-17T12:20:30.584Z,14.86
2022-08-17T12:23:09.717Z,16.78
2022-08-17T12:25:47.682Z,17.08
2022-08-17T12:28:26.410Z,17.87
2022-08-17T12:31:00.006Z,17.10
2022-08-17T12:33:33.258Z,15.86
2022-08-17T12:36:06.726Z,16.17
2022-08-17T12:38:39.832Z,15.79
2022-08-17T12:41:30.296Z,15.47
2022-08-17T12:44:02.903Z,16.32
2022-08-17T12:46:36.353Z,17.00
2022-08-17T12:49:24.691Z,17.67
2022-08-17T12:52:01.994Z,18.27
2022-08-17T12:54:41.237Z,18.73
2022-08-17T12:57:17.594Z,19.01
2022-08-17T12:59:51.863Z,19.66
2022-08-17T13:02:29.557Z,19.58
2022-08-17T13:05:02.231Z,20.40
2022-08-17T13:07:35.532Z,19.63
2022-08-17T13:10:07.337Z,20.44
2022-08-17T13:12:40.526Z,20.72
2022-08-17T13:15:18.701Z,20.44
2022-08-17T13:17:58.842Z,20.17
2022-08-17T13:20:30.423Z,20.57
2022-08-17T13:23:07.495Z,20.90
2022-08-17T13:25:43.186Z,21.12
2022-08-17T13:28:32.458Z,20.05
2022-08-17T13:31:28.136Z,19.57
2022-08-17T13:34:16.239Z,19.85
2022-08-17T13:36:50.798Z,19.72
2022-08-17T13:39:26.212Z,19.74
2022-08-17T13:41:58.720Z,20.16
2022-08-17T13:44:32.377Z,20.76
2022-08-17T13:47:03.417Z,20.81
2022-08-17T13:49:48.648Z,19.46
2022-08-17T13:52:38.142Z,20.73
2022-08-17T13:55:17.264Z,20.97
2022-08-17T13:57:49.484Z,20.87
2022-08-17T14:00:36.691Z,21.19
2022-08-17T14:03:08.236Z,20.82
2022-08-17T14:05:40.237Z,20.10
2022-08-17T14:08:15.105Z,20.67
2022-08-17T14:10:53.541Z,20.86
2022-08-17T14:13:30.614Z,21.17
2022-08-17T14:16:03.485Z,20.81
2022-08-17T14:18:55.318Z,21.16
2022-08-17T14:21:25.189Z,21.11
2022-08-17T14:23:55.155Z,21.52
2022-08-17T14:26:25.677Z,21.34
2022-08-17T14:28:58.334Z,21.31
2022-08-17T14:31:37.401Z,21.78
2022-08-17T14:34:11.041Z,21.89
2022-08-17T14:36:48.209Z,22.44
2022-08-17T14:39:19.652Z,21.73
2022-08-17T14:41:50.415Z,21.27
2022-08-17T14:44:22.341Z,21.29
2022-08-17T14:46:53.205Z,22.00
2022-08-17T14:49:26.101Z,22.19
2022-08-17T14:51:58.661Z,22.27
2022-08-17T14:54:34.302Z,21.96
2022-08-17T14:57:25.736Z,22.28
2022-08-17T15:00:04.516Z,22.75
2022-08-17T15:02:45.899Z,23.17
2022-08-17T15:05:16.840Z,23.32
2022-08-17T15:07:47.571Z,23.46
2022-08-17T15:10:20.706Z,23.58
2022-08-17T15:12:54.428Z,23.74
2022-08-17T15:15:25.853Z,23.73
2022-08-17T15:17:57.049Z,23.70
2022-08-17T15:20:30.082Z,24.05
2022-08-17T15:22:59.860Z,24.01
2022-08-17T15:25:34.232Z,24.28
2022-08-17T15:28:04.643Z,23.88
2022-08-17T15:30:45.289Z,23.82
2022-08-17T15:33:18.533Z,23.28
2022-08-17T15:35:53.625Z,23.53
2022-08-17T15:38:26.791Z,24.04
2022-08-17T15:40:58.629Z,24.15
2022-08-17T15:43:32.773Z,24.21
2022-08-17T15:46:14.800Z,24.16
2022-08-17T15:48:47.157Z,24.03
2022-08-17T15:51:21.269Z,24.15
2022-08-17T15:53:57.185Z,24.50
2022-08-17T15:56:28.106Z,24.59
2022-08-17T15:58:57.570Z,24.66
2022-08-17T16:02:59.327Z,25.15
2022-08-17T16:04:30.427Z,24.82
2022-08-17T16:07:01.768Z,25.33
2022-08-17T16:09:35.023Z,25.30
2022-08-17T16:12:14.256Z,25.37
2022-08-17T16:14:44.399Z,25.83
2022-08-17T16:17:38.808Z,26.15
2022-08-17T16:20:20.055Z,26.05
2022-08-17T16:22:54.434Z,26.18
2022-08-17T16:25:52.015Z,25.57
2022-08-17T16:28:35.761Z,26.26
2022-08-17T16:31:08.114Z,26.66
2022-08-17T16:33:41.238Z,26.84
2022-08-17T16:36:12.903Z,26.67
2022-08-17T16:38:45.555Z,26.71
2022-08-17T16:41:38.047Z,26.88
2022-08-17T16:44:08.525Z,26.70
2022-08-17T16:46:46.600Z,27.09
2022-08-17T16:49:35.773Z,26.18
2022-08-17T16:52:11.514Z,27.16
2022-08-17T16:54:45.651Z,27.16
2022-08-17T16:57:18.653Z,27.44
2022-08-17T16:59:51.789Z,27.49
2022-08-17T17:02:32.869Z,27.56
2022-08-17T17:05:25.801Z,27.10
2022-08-17T17:08:03.710Z,27.62
2022-08-17T17:10:48.922Z,27.71
2022-08-17T17:13:27.357Z,27.20
2022-08-17T17:16:07.775Z,27.60
2022-08-17T17:18:58.644Z,27.16
2022-08-17T17:21:46.539Z,27.19
2022-08-17T17:24:35.954Z,27.67
2022-08-17T17:27:22.746Z,27.78
2022-08-17T17:30:40.311Z,27.88
2022-08-17T17:33:18.617Z,27.93
2022-08-17T17:36:33.340Z,27.63
2022-08-17T17:39:14.939Z,27.64
2022-08-17T17:42:04.869Z,28.06
2022-08-17T17:44:43.400Z,27.91
2022-08-17T17:47:17.965Z,27.95
2022-08-17T17:49:49.939Z,28.18
2022-08-17T17:52:28.264Z,28.22
2022-08-17T17:55:17.458Z,28.86
2022-08-17T17:58:04.165Z,28.68
2022-08-17T18:00:40.423Z,28.83
2022-08-17T18:03:31.821Z,28.58
2022-08-17T18:06:19.971Z,28.66
2022-08-17T18:09:07.532Z,29.03
2022-08-17T18:12:21.185Z,28.77
2022-08-17T18:15:12.155Z,28.84
2022-08-17T18:18:03.254Z,28.89
2022-08-17T18:20:53.453Z,28.82
2022-08-17T18:23:28.637Z,29.44
2022-08-17T18:25:59.843Z,29.32
2022-08-17T18:28:36.958Z,29.67
2022-08-17T18:31:13.779Z,29.38
2022-08-17T18:33:48.666Z,29.38
2022-08-17T18:36:29.697Z,29.50
2022-08-17T18:39:16.839Z,29.55
2022-08-17T18:41:52.303Z,30.22
2022-08-17T18:44:29.396Z,29.87
2022-08-17T18:47:14.889Z,29.90
2022-08-17T18:49:49.395Z,30.24
2022-08-17T18:52:26.261Z,30.12
2022-08-17T18:55:14.705Z,30.18
2022-08-17T18:57:47.754Z,30.19
2022-08-17T19:00:34.339Z,30.16
2022-08-17T19:03:07.693Z,30.71
2022-08-17T19:05:44.491Z,30.63
2022-08-17T19:08:24.122Z,30.88
2022-08-17T19:10:57.289Z,31.02
2022-08-17T19:13:33.076Z,31.23
2022-08-17T19:16:15.701Z,30.69
2022-08-17T19:18:52.122Z,30.94
2022-08-17T19:21:27.404Z,31.10
2022-08-17T19:24:04.876Z,31.10
2022-08-17T19:26:50.729Z,31.06
2022-08-17T19:29:34.200Z,31.39
2022-08-17T19:32:08.406Z,31.06
2022-08-17T19:34:44.743Z,30.78
2022-08-17T19:37:30.474Z,31.17
2022-08-17T19:40:10.221Z,31.66
2022-08-17T19:42:47.959Z,31.71
2022-08-17T19:45:32.880Z,31.38
2022-08-17T19:48:23.690Z,31.81
2022-08-17T19:51:03.025Z,31.61
2022-08-17T19:54:07.120Z,31.96
2022-08-17T19:56:49.035Z,32.09
2022-08-17T19:59:36.099Z,32.24
2022-08-17T20:02:32.237Z,32.15
2022-08-17T20:05:40.530Z,32.07
2022-08-17T20:08:50.918Z,32.73
2022-08-17T20:12:40.364Z,32.27
2022-08-17T20:15:13.780Z,33.15
2022-08-17T20:17:48.981Z,33.27
2022-08-17T20:20:34.075Z,33.17
2022-08-17T20:23:12.991Z,33.57
2022-08-17T20:26:09.037Z,33.28
2022-08-17T20:28:42.001Z,33.63
2022-08-17T20:31:46.170Z,33.36
2022-08-17T20:34:36.709Z,33.52
2022-08-17T20:37:12.335Z,33.58
2022-08-17T20:40:13.406Z,33.83
2022-08-17T20:42:49.129Z,33.42
2022-08-17T20:46:13.470Z,33.92
2022-08-17T20:48:46.871Z,34.16
2022-08-17T20:51:28.796Z,34.67
2022-08-17T20:54:36.837Z,34.40
2022-08-17T20:57:13.847Z,34.64
2022-08-17T21:00:14.266Z,34.73
2022-08-17T21:02:45.113Z,34.87
2022-08-17T21:05:43.215Z,34.68
2022-08-17T21:08:20.113Z,35.02
2022-08-17T21:10:50.512Z,35.04
2022-08-17T21:13:50.750Z,34.62
2022-08-17T21:16:38.887Z,35.07
2022-08-17T21:19:25.078Z,35.40
2022-08-17T21:22:07.581Z,35.25
2022-08-17T21:25:09.534Z,35.39
2022-08-17T21:27:50.471Z,35.30
2022-08-17T21:30:41.080Z,35.84
2022-08-17T21:33:24.530Z,35.57
2022-08-17T21:35:58.648Z,35.41
2022-08-17T21:38:36.145Z,36.07
2022-08-17T21:41:06.643Z,36.03
2022-08-17T21:43:38.342Z,36.16
2022-08-17T21:46:23.651Z,36.38
2022-08-17T21:48:56.414Z,36.70
2022-08-17T21:51:29.257Z,36.42
2022-08-17T21:54:01.460Z,36.93
2022-08-17T21:56:38.469Z,36.65
2022-08-17T21:59:10.432Z,37.06
2022-08-17T22:02:01.146Z,36.52
2022-08-17T22:04:32.495Z,37.03
2022-08-17T22:07:04.773Z,36.31
2022-08-17T22:09:37.221Z,36.83
2022-08-17T22:12:11.570Z,37.06
2022-08-17T22:14:51.816Z,37.22
2022-08-17T22:17:27.277Z,37.05
2022-08-17T22:20:01.959Z,37.46
2022-08-17T22:23:01.938Z,37.06
2022-08-17T22:25:31.909Z,37.32
2022-08-17T22:28:03.230Z,37.16
2022-08-17T22:30:37.813Z,37.31
2022-08-17T22:33:38.401Z,37.34
2022-08-17T22:36:30.972Z,37.29
2022-08-17T22:39:02.124Z,37.43
2022-08-17T22:41:55.669Z,37.51
2022-08-17T22:44:29.693Z,37.74
2022-08-17T22:47:11.238Z,37.58
2022-08-17T22:49:53.167Z,37.58
2022-08-17T22:53:03.082Z,37.43
2022-08-17T22:55:48.582Z,37.62
2022-08-17T22:58:39.480Z,37.55
2022-08-17T23:01:25.817Z,37.75
2022-08-17T23:03:59.707Z,37.50
2022-08-17T23:06:37.832Z,37.77
2022-08-17T23:09:08.948Z,37.90
2022-08-17T23:11:48.714Z,38.13
2022-08-17T23:14:21.289Z,38.49
2022-08-17T23:16:53.106Z,38.49
2022-08-17T23:19:23.909Z,38.50
2022-08-17T23:21:58.028Z,38.12
2022-08-17T23:24:29.168Z,38.33
2022-08-17T23:27:00.134Z,38.65
2022-08-17T23:29:30.482Z,38.53
2022-08-17T23:32:01.717Z,38.35
2022-08-17T23:34:31.479Z,37.62
2022-08-17T23:37:04.648Z,38.77
2022-08-17T23:39:34.784Z,39.40
2022-08-17T23:42:09.202Z,38.70
2022-08-17T23:44:39.676Z,38.57
2022-08-17T23:47:09.528Z,38.29
2022-08-17T23:49:39.265Z,38.42
2022-08-17T23:52:16.503Z,38.63
2022-08-17T23:54:48.503Z,38.59
2022-08-17T23:57:33.649Z,39.01
